メインページ
METAR-TAF:

METAR-TAF

空港 :

ファアモツ国際空港

トンガタプ島, トンガ

緯度: 21-14S, 経度: 175-09W, 海抜: 38m

現時点の気象観測

当レポートは21分前の15:00(UTC)に作成
北西の風 5kt
気温 26°C
湿度 94%
気圧 1010 hPa
視程10km以上
高度800ftの雲は散在している
高度1600ftの千切れ雲あり
高度1800ftの雲は散在している, 積乱雲.
高度11000ftの曇り
激しい雷雨, 雨

METAR: NFTF 181500Z 32005KT 9999 TSRA SCT008 BKN016 SCT018CB OVC110 26/25 Q1010 RMK LIGHTNING FM NE/NW

時間: 05:21 (15:21 UTC)

予報

当レポートは4時間21分前の11:00(UTC)に作成
予報は18日の 12時(UTC)から 19日の 12時(UTC)まで有効
西の風 8kt
視程10km以上
高度900ftの雲はほとんどない
高度1600ftの雲は散在している
高度10000ftの千切れ雲あり
確率 30% :
18日の 12時(UTC)から 18日の 21時(UTC)まで一時的に
視程: 5000m
高度1500ftの千切れ雲あり
高度1800ftの雲はほとんどない, 積乱雲.
激しい雷雨, 雨
確率 30% :
19日の 02時(UTC)から 19日の 06時(UTC)まで一時的に
視程: 5000m
高度1500ftの千切れ雲あり
高度1800ftの雲はほとんどない, 積乱雲.
激しい雷雨, 雨

TAF: NFTF 181100Z 1812/1912 27008KT 9999 FEW009 SCT016 BKN100 PROB30 TEMPO 1812/1821 5000 TSRA BKN015 FEW018CB PROB30 TEMPO 1902/1906 5000 TSRA BKN015 FEW018CB

4,000以上の空港の気象観測と天気予報(METAR報とTAF報)

利用可能な観測所は地図上に黄色い丸と赤い丸で示す。

丸の上にカーソルを重ねると観測所名を参照できる。

次にクリックすると気象観測と天気予報を参照できる。

マップの切り替え:黒色「×」印の緑ボタンをクリックして拡大、「-」印の緑ボタンをクリックして縮小、緑色の三角印をクリックして隣りの地図に切り替え


METAR-TAF: